AirNav   Air Wisconsin Up To $57,000 Bonus
 
 1653 users online  

7M4 Osceola Municipal Airport
Osceola, Arkansas, USA

GOING TO OSCEOLA?


FAA INFORMATION EFFECTIVE 17 JUNE 2021

Location

FAA Identifier: 7M4
Lat/Long: 35-41-28.1000N 090-00-36.4000W
35-41.468333N 090-00.606667W
35.6911389,-90.0101111
(estimated)
Elevation: 234.7 ft. / 71.5 m (surveyed)
Variation: 02E (1985)
From city: 2 miles SW of OSCEOLA, AR
Time zone: UTC -5 (UTC -6 during Standard Time)
Zip code: 72370

Airport Operations

Airport use: Open to the public
Activation date: 10/1965
Control tower: no
ARTCC: MEMPHIS CENTER
FSS: JONESBORO FLIGHT SERVICE STATION
NOTAMs facility: JBR (NOTAM-D service available)
Attendance: UNATNDD
FOR ARPT ATTENDANT CALL 870-838-5578.
Wind indicator: lighted
Segmented circle: yes
Lights: ACTVT REIL RWY 19; MIRL RWY 01/19 - CTAF.
Beacon: white-green (lighted land airport)
Operates sunset to sunrise.

Airport Communications

CTAF/UNICOM: 122.8
MEMPHIS APPROACH: 119.1
MEMPHIS DEPARTURE: 119.1
WX ASOS at HKA (17 nm NE): 135.025 (870-763-8206)

Nearby radio navigation aids

VOR radial/distance  VOR name  Freq  Var
JBRr111/30.2JONESBORO VOR/DME108.6000W
GQEr044/30.8GILMORE VOR/DME113.0004E
DYRr237/39.0DYERSBURG VORTAC116.8003E

Airport Services

Fuel available: 100LL
100LL:FUEL AVBL 24 HRS WITH CREDIT CARD.
Parking: hangars and tiedowns
Airframe service: NONE
Powerplant service: NONE
Bottled oxygen: NONE
Bulk oxygen: NONE

Runway Information

Runway 1/19

Dimensions: 3799 x 75 ft. / 1158 x 23 m
Surface: asphalt, in good condition
Weight bearing capacity: 
Single wheel: 8.5
Runway edge lights: medium intensity
RUNWAY 1  RUNWAY 19
Latitude: 35-41.159252N35-41.777922N
Longitude: 090-00.666283W090-00.547943W
Elevation: 234.3 ft.234.1 ft.
Traffic pattern: leftleft
Runway heading: 007 magnetic, 009 true187 magnetic, 189 true
Markings: basic, in good conditionnonprecision, in good condition
Runway end identifier lights: yesyes
Touchdown point: yes, no lightsyes, no lights
Obstructions: 25 ft. tree, 815 ft. from runway, 275 ft. left of centerline, 24:1 slope to clear31 ft. pole, lighted, 550 ft. from runway, 380 ft. left of centerline, 11:1 slope to clear

Airport Ownership and Management from official FAA records

Ownership: Publicly-owned
Owner: CITY OF OSCEOLA
PO BOX 403
OSCEOLA, AR 72370
Phone 870-563-5245
Manager: RUSS THOMASON
200 AIRPORT ROAD
OSCEOLA, AR 72370
Phone 870-838-5578

Airport Operational Statistics

Aircraft based on the field: 14
Single engine airplanes: 14
    
Aircraft operations: avg 36/day *
92% local general aviation
8% transient general aviation
* for 12-month period ending 30 September 2020

Additional Remarks

FOR CD CTC MEMPHIS APCH AT 901-842-8457.

Instrument Procedures

NOTE: All procedures below are presented as PDF files. If you need a reader for these files, you should download the free Adobe Reader.

NOT FOR NAVIGATION. Please procure official charts for flight.
FAA instrument procedures published for use from 17 June 2021 at 0901Z to 15 July 2021 at 0900Z.

 
IAPs - Instrument Approach Procedures
RNAV (GPS) RWY 19   download (204KB)
NOTE: Special Take-Off Minimums/Departure Procedures apply   download (131KB)

Other nearby airports with instrument procedures:

KMXA - Manila Municipal Airport (14 nm NW)
KBYH - Arkansas International Airport (17 nm N)
KHKA - Blytheville Municipal Airport (17 nm NE)
KNQA - Millington-Memphis Airport (21 nm S)
M04 - Covington Municipal Airport (22 nm E)
 
Loc | Ops | Rwys | IFR | FBO | Links
Com | Nav | Svcs | Stats | Notes
Area around 7M4 (Osceola Municipal Airport)
 
Road maps at: MapQuest Bing Google
 
Aerial photo
WARNING: Photo may not be current or correct
Aerial photo of 7M4 (Osceola Municipal Airport)
Photo courtesy of the Arkansas Department of Aeronautics
Taken in the Spring of 2007

Do you have a better or more recent aerial photo of Osceola Municipal Airport that you would like to share? If so, please send us your photo.

 
Sectional chart

 
Airport distance calculator
Flying to Osceola Municipal Airport? Find the distance to fly.

From to 7M4

Sunrise and sunset
Times for 24-Jun-2021
 Local
(UTC-5)
 Zulu
(UTC)
Morning civil twilight05:1610:16
Sunrise05:4610:46
Sunset20:1901:19
Evening civil twilight20:4901:49

Current date and time
Zulu (UTC)  24-Jun-2021 16:59:18
Local (UTC-5)  24-Jun-2021 11:59:18
 
METAR
KHKA 
17nm NE 
241653Z AUTO 17009KT 140V210 10SM BKN042 BKN050 30/21 A3007 RMK AO2 SLP180 T03000211
KBYH 
17nm NE 
241550Z 18007G14KT 10SM FEW050 FEW070 29/21 A3008
KNQA 
22nm S 
241650Z 17007KT 10SM FEW038 SCT044 30/22 A3007
KM04 
22nm E 
241635Z AUTO 21008KT 10SM BKN055 30/22 A3008 RMK A01
KTKX 
32nm N 
241655Z AUTO 15007G13KT 9SM CLR 30/23 A3006 RMK AO2
KJBR 
32nm W 
241653Z AUTO 19008KT 10SM CLR 32/23 A3005 RMK AO2 SLP173 T03170228 $
TAF
KJBR 
32nm W 
241120Z 2412/2512 18005KT P6SM SKC FM241500 19010KT P6SM SCT050 BKN250 FM250100 17008KT P6SM SCT250
KMEM 
37nm S 
241459Z 2415/2518 17008KT P6SM SCT035 BKN250 FM241800 18009KT P6SM SCT050 BKN250 FM250100 17011KT P6SM SCT250 FM251400 18012KT P6SM FEW030 SCT250
NOTAMs
Click for the latest NOTAMs
NOTAMs are issued by the DoD/FAA and will open in a separate window not controlled by AirNav.

 

 
 

FBO, Fuel Providers, and Aircraft Ground Support

  
 Business Name 
 
 Contact 
 
 Services / Description 
 
Fuel Prices
 
Comments
  
City of Osceola 870-563-5245
no information available

If you are affiliated with City of Osceola and would like to show here your services, contact info, web link, logo, and more, click here
Jet A
SS $3.83 
 Updated 05-Nov-2020
 
   write
SS=Self service
Update Fuel Prices
 

Would you like to see your business listed on this page?

 If your business provides an interesting product or service to pilots, flight crews, aircraft, or users of the Osceola Municipal Airport, you should consider listing it here.  To start the listing process, click on the button below
 
Add a business
 

Other Pages about Osceola Municipal Airport

Update a link
 
Copyright © AirNav, LLC. All rights reserved. Privacy Policy  Contact